Les Eplatures, Switzerland
Current Conditions -  °F | °C
As of 3:20 AM on Thursday 23 Oct 2014 (Local Time) from LSGC Reporting Station
Snow Showers Snow Showers  
Wind Chill: 36°   Ceiling: 800
Heat Index: 36°   Visibility: 2.3mi
Dew Point: 36°   Wind: 3mph
Humidity: 100%   Direction: NA
Pressure: 30.27"   Gusts: NA
Location:  47.09°N, 6.8°E
Report Text: LSGC 230120Z AUTO VRB03KT 3800 -SHRASN BR BKN008 02/02 Q1025
Loading
Personal Weather Stations






























Interactive Weather Map
Tropical Storm Tracking
New forecast layout! Learn more

10-Day Weather Forecast

Advertisements
Track Severe Weather on mobile